createdAt,value
2023-05-01T00:01:05.978Z,100850.74
2023-05-01T00:03:34.113Z,100851.35
2023-05-01T00:06:05.595Z,100855.94
2023-05-01T00:08:33.184Z,100853.67
2023-05-01T00:11:05.754Z,100855.67
2023-05-01T00:13:33.760Z,100853.72
2023-05-01T00:16:01.563Z,100856.59
2023-05-01T00:18:32.392Z,100858.77
2023-05-01T00:21:00.207Z,100855.62
2023-05-01T00:23:27.845Z,100855.79
2023-05-01T00:25:55.372Z,100855.42
2023-05-01T00:28:22.895Z,100854.54
2023-05-01T00:30:51.115Z,100854.52
2023-05-01T00:33:19.138Z,100855.52
2023-05-01T00:35:46.866Z,100850.65
2023-05-01T00:38:14.493Z,100848.91
2023-05-01T00:40:46.231Z,100850.41
2023-05-01T00:43:13.891Z,100847.95
2023-05-01T00:45:46.468Z,100852.23
2023-05-01T00:48:14.932Z,100851.52
2023-05-01T00:50:45.666Z,100848.89
2023-05-01T00:53:13.250Z,100847.98
2023-05-01T00:55:43.148Z,100847.59
2023-05-01T00:58:12.345Z,100848.95
2023-05-01T01:00:40.102Z,100849.08
2023-05-01T01:03:07.679Z,100847.69
2023-05-01T01:05:41.922Z,100847.46
2023-05-01T01:08:31.253Z,100848.45
2023-05-01T01:11:06.402Z,100848.02
2023-05-01T01:13:46.220Z,100845.19
2023-05-01T01:16:37.210Z,100844.42
2023-05-01T01:19:36.777Z,100842.67
2023-05-01T01:22:12.750Z,100845.02
2023-05-01T01:24:42.961Z,100844.44
2023-05-01T01:27:34.672Z,100840.75
2023-05-01T01:30:25.830Z,100834.32
2023-05-01T01:33:26.263Z,100839.60
2023-05-01T01:35:57.724Z,100839.20
2023-05-01T01:38:36.175Z,100838.29
2023-05-01T01:41:21.319Z,100838.41
2023-05-01T01:44:02.439Z,100837.48
2023-05-01T01:46:37.538Z,100834.32
2023-05-01T01:49:15.143Z,100832.36
2023-05-01T01:51:43.621Z,100835.91
2023-05-01T01:54:15.161Z,100837.02
2023-05-01T01:56:45.210Z,100836.58
2023-05-01T01:59:15.470Z,100832.04
2023-05-01T02:01:44.722Z,100834.03
2023-05-01T02:04:15.729Z,100831.88
2023-05-01T02:06:46.191Z,100830.36
2023-05-01T02:09:17.383Z,100829.55
2023-05-01T02:11:46.553Z,100830.31
2023-05-01T02:14:16.025Z,100830.05
2023-05-01T02:16:45.757Z,100828.23
2023-05-01T02:19:15.824Z,100826.64
2023-05-01T02:21:45.481Z,100822.25
2023-05-01T02:24:14.353Z,100818.02
2023-05-01T02:26:43.719Z,100818.64
2023-05-01T02:29:11.605Z,100818.60
2023-05-01T02:31:41.219Z,100812.91
2023-05-01T02:34:09.010Z,100811.02
2023-05-01T02:36:36.461Z,100812.42
2023-05-01T02:39:05.281Z,100815.86
2023-05-01T02:41:34.234Z,100815.03
2023-05-01T02:44:04.127Z,100809.54
2023-05-01T02:46:35.434Z,100809.75
2023-05-01T02:49:05.372Z,100812.36
2023-05-01T02:51:34.595Z,100810.52
2023-05-01T02:54:03.181Z,100808.52
2023-05-01T02:56:31.354Z,100813.55
2023-05-01T02:58:58.874Z,100811.86
2023-05-01T03:01:27.878Z,100812.24
2023-05-01T03:03:55.605Z,100815.86
2023-05-01T03:06:23.156Z,100814.96
2023-05-01T03:08:51.659Z,100814.61
2023-05-01T03:11:19.274Z,100813.39
2023-05-01T03:13:47.616Z,100812.65
2023-05-01T03:16:15.161Z,100809.05
2023-05-01T03:18:42.706Z,100809.23
2023-05-01T03:21:12.805Z,100811.27
2023-05-01T03:23:40.331Z,100807.49
2023-05-01T03:26:07.896Z,100813.83
2023-05-01T03:28:35.484Z,100813.14
2023-05-01T03:31:03.594Z,100813.52
2023-05-01T03:33:31.899Z,100816.67
2023-05-01T03:36:04.088Z,100812.70
2023-05-01T03:38:32.584Z,100812.83
2023-05-01T03:41:00.193Z,100816.77
2023-05-01T03:43:28.032Z,100816.27
2023-05-01T03:45:56.137Z,100816.48
2023-05-01T03:48:24.686Z,100819.13
2023-05-01T03:50:52.660Z,100822.13
2023-05-01T03:53:20.244Z,100821.71
2023-05-01T03:55:48.200Z,100818.71
2023-05-01T03:58:15.755Z,100820.21
2023-05-01T04:00:43.376Z,100818.94
2023-05-01T04:03:10.937Z,100817.48
2023-05-01T04:05:38.833Z,100819.30
2023-05-01T04:08:07.507Z,100822.54
2023-05-01T04:10:36.353Z,100816.84
2023-05-01T04:13:04.817Z,100821.80
2023-05-01T04:15:32.392Z,100824.20
2023-05-01T04:18:00.514Z,100823.30
2023-05-01T04:20:28.148Z,100818.61
2023-05-01T04:22:55.696Z,100814.95
2023-05-01T04:25:23.183Z,100813.17
2023-05-01T04:27:50.994Z,100816.27
2023-05-01T04:30:18.721Z,100818.48
2023-05-01T04:32:46.396Z,100813.10
2023-05-01T04:35:14.385Z,100810.27
2023-05-01T04:37:42.422Z,100812.48
2023-05-01T04:40:11.878Z,100810.02
2023-05-01T04:42:39.768Z,100813.06
2023-05-01T04:45:07.569Z,100808.52
2023-05-01T04:47:35.243Z,100808.11
2023-05-01T04:50:03.195Z,100806.31
2023-05-01T04:52:31.148Z,100805.04
2023-05-01T04:54:59.062Z,100805.14
2023-05-01T04:57:26.947Z,100804.59
2023-05-01T04:59:54.665Z,100797.96
2023-05-01T05:02:22.419Z,100798.23
2023-05-01T05:04:53.808Z,100801.60
2023-05-01T05:07:21.569Z,100799.45
2023-05-01T05:09:49.015Z,100796.77
2023-05-01T05:12:16.548Z,100793.06
2023-05-01T05:14:44.083Z,100795.55
2023-05-01T05:17:11.585Z,100794.41
2023-05-01T05:19:39.191Z,100792.73
2023-05-01T05:22:06.706Z,100791.95
2023-05-01T05:24:34.239Z,100789.93
2023-05-01T05:27:01.818Z,100792.23
2023-05-01T05:29:29.417Z,100796.59
2023-05-01T05:31:57.969Z,100797.65
2023-05-01T05:34:27.024Z,100795.62
2023-05-01T05:36:54.573Z,100792.73
2023-05-01T05:39:23.512Z,100796.54
2023-05-01T05:41:53.008Z,100793.10
2023-05-01T05:44:20.771Z,100791.23
2023-05-01T05:46:48.408Z,100791.57
2023-05-01T05:49:16.084Z,100788.98
2023-05-01T05:51:43.664Z,100787.61
2023-05-01T05:54:11.768Z,100787.27
2023-05-01T05:56:39.247Z,100788.99
2023-05-01T05:59:06.784Z,100792.80
2023-05-01T06:01:34.668Z,100794.86
2023-05-01T06:04:02.154Z,100795.02
2023-05-01T06:06:29.704Z,100793.98
2023-05-01T06:08:57.697Z,100794.27
2023-05-01T06:11:28.316Z,100795.10
2023-05-01T06:13:57.338Z,100796.96
2023-05-01T06:16:25.587Z,100795.71
2023-05-01T06:18:53.220Z,100801.58
2023-05-01T06:21:20.706Z,100797.56
2023-05-01T06:23:48.178Z,100798.70
2023-05-01T06:26:15.763Z,100796.41
2023-05-01T06:28:43.277Z,100798.80
2023-05-01T06:31:11.065Z,100802.91
2023-05-01T06:33:38.750Z,100801.33
2023-05-01T06:36:06.479Z,100804.25
2023-05-01T06:38:34.294Z,100800.73
2023-05-01T06:41:02.182Z,100799.65
2023-05-01T06:43:31.175Z,100796.83
2023-05-01T06:45:58.747Z,100793.31
2023-05-01T06:48:26.354Z,100789.98
2023-05-01T06:50:53.877Z,100792.31
2023-05-01T06:53:21.371Z,100790.88
2023-05-01T06:55:48.903Z,100787.54
2023-05-01T07:00:50.388Z,100780.63
2023-05-01T07:03:18.158Z,100780.02
2023-05-01T07:05:45.752Z,100777.01
2023-05-01T07:08:14.277Z,100777.95
2023-05-01T07:10:42.487Z,100771.28
2023-05-01T07:13:10.405Z,100768.40
2023-05-01T07:15:38.189Z,100761.33
2023-05-01T07:18:06.304Z,100761.04
2023-05-01T07:20:37.198Z,100759.57
2023-05-01T07:23:07.112Z,100757.58
2023-05-01T07:25:45.275Z,100753.11
2023-05-01T07:28:12.836Z,100753.01
2023-05-01T07:30:40.571Z,100754.61
2023-05-01T07:33:08.195Z,100755.19
2023-05-01T07:35:36.990Z,100756.52
2023-05-01T07:38:04.744Z,100757.85
2023-05-01T07:40:36.576Z,100758.98
2023-05-01T07:43:04.864Z,100756.14
2023-05-01T07:45:32.439Z,100758.17
2023-05-01T07:48:00.750Z,100755.64
2023-05-01T07:50:28.977Z,100758.15
2023-05-01T07:52:57.360Z,100755.95
2023-05-01T07:55:25.337Z,100761.49
2023-05-01T07:57:53.130Z,100754.61
2023-05-01T08:00:20.955Z,100751.87
2023-05-01T08:02:48.610Z,100748.00
2023-05-01T08:05:16.248Z,100751.39
2023-05-01T08:07:43.878Z,100749.91
2023-05-01T08:10:11.474Z,100746.61
2023-05-01T08:12:39.368Z,100751.31
2023-05-01T08:15:07.689Z,100744.29
2023-05-01T08:17:37.370Z,100742.20
2023-05-01T08:20:05.618Z,100742.59
2023-05-01T08:22:33.133Z,100742.02
2023-05-01T08:25:00.661Z,100737.70
2023-05-01T08:27:28.184Z,100735.07
2023-05-01T08:29:55.929Z,100729.38
2023-05-01T08:32:24.787Z,100728.19
2023-05-01T08:34:52.398Z,100725.80
2023-05-01T08:37:19.922Z,100726.60
2023-05-01T08:39:47.482Z,100723.38
2023-05-01T08:42:15.406Z,100723.33
2023-05-01T08:44:43.625Z,100725.30
2023-05-01T08:47:18.903Z,100720.52
2023-05-01T08:49:50.736Z,100721.98
2023-05-01T08:52:20.758Z,100724.10
2023-05-01T08:54:50.643Z,100726.04
2023-05-01T08:57:19.056Z,100727.50
2023-05-01T08:59:48.218Z,100722.12
2023-05-01T09:02:15.960Z,100718.55
2023-05-01T09:04:44.055Z,100712.11
2023-05-01T09:07:12.709Z,100709.70
2023-05-01T09:09:40.266Z,100706.73
2023-05-01T09:12:35.490Z,100702.93
2023-05-01T09:15:03.993Z,100699.04
2023-05-01T09:17:33.028Z,100702.10
2023-05-01T09:20:06.106Z,100701.65
2023-05-01T09:22:35.275Z,100699.16
2023-05-01T09:25:04.027Z,100694.68
2023-05-01T09:27:38.043Z,100692.98
2023-05-01T09:30:07.319Z,100685.19
2023-05-01T09:32:34.836Z,100683.46
2023-05-01T09:35:19.394Z,100683.45
2023-05-01T09:37:50.157Z,100677.05
2023-05-01T09:40:17.665Z,100674.96
2023-05-01T09:42:52.887Z,100676.21
2023-05-01T09:45:20.586Z,100670.37
2023-05-01T09:47:48.568Z,100671.46
2023-05-01T09:50:33.000Z,100670.02
2023-05-01T09:53:06.484Z,100663.36
2023-05-01T09:55:34.923Z,100665.67
2023-05-01T09:58:02.592Z,100664.02
2023-05-01T10:00:30.348Z,100661.30
2023-05-01T10:02:58.030Z,100649.92
2023-05-01T10:05:26.144Z,100646.46
2023-05-01T10:08:03.898Z,100640.88
2023-05-01T10:10:31.587Z,100637.65
2023-05-01T10:13:14.446Z,100637.32
2023-05-01T10:15:42.055Z,100633.23
2023-05-01T10:18:13.435Z,100633.30
2023-05-01T10:20:40.976Z,100633.20
2023-05-01T10:23:08.726Z,100629.85
2023-05-01T10:25:37.267Z,100624.56
2023-05-01T10:28:06.248Z,100626.45
2023-05-01T10:30:35.767Z,100622.05
2023-05-01T10:33:04.662Z,100611.14
2023-05-01T10:35:38.107Z,100610.35
2023-05-01T10:38:09.528Z,100598.61
2023-05-01T10:40:40.712Z,100597.72
2023-05-01T10:43:31.327Z,100592.29
2023-05-01T10:46:21.380Z,100592.85
2023-05-01T10:48:56.472Z,100589.98
2023-05-01T10:51:27.574Z,100585.67
2023-05-01T10:54:11.927Z,100581.58
2023-05-01T10:56:39.395Z,100583.27
2023-05-01T10:59:07.450Z,100579.10
2023-05-01T11:01:35.011Z,100570.83
2023-05-01T11:04:05.224Z,100572.20
2023-05-01T11:06:33.572Z,100569.95
2023-05-01T11:09:02.469Z,100560.90
2023-05-01T11:11:29.897Z,100559.46
2023-05-01T11:14:13.414Z,100560.92
2023-05-01T11:16:42.476Z,100557.73
2023-05-01T11:19:22.467Z,100555.21
2023-05-01T11:21:54.208Z,100548.96
2023-05-01T11:24:31.802Z,100547.34
2023-05-01T11:27:02.522Z,100542.94
2023-05-01T11:29:33.546Z,100546.13
2023-05-01T11:32:01.340Z,100542.54
2023-05-01T11:34:37.618Z,100534.91
2023-05-01T11:37:05.114Z,100530.96
2023-05-01T11:39:32.987Z,100532.59
2023-05-01T11:42:10.347Z,100533.09
2023-05-01T11:44:38.153Z,100526.04
2023-05-01T11:47:07.393Z,100522.55
2023-05-01T11:49:35.713Z,100520.67
2023-05-01T11:52:03.325Z,100516.09
2023-05-01T11:54:31.136Z,100515.39
2023-05-01T11:57:00.991Z,100514.58
2023-05-01T11:59:30.643Z,100515.88
2023-05-01T12:01:59.088Z,100514.45
2023-05-01T12:04:31.642Z,100511.73
2023-05-01T12:07:00.000Z,100505.48
2023-05-01T12:09:28.628Z,100500.79
2023-05-01T12:11:59.717Z,100498.48
2023-05-01T12:14:27.983Z,100494.38
2023-05-01T12:16:57.227Z,100494.79
2023-05-01T12:19:24.870Z,100486.75
2023-05-01T12:22:08.512Z,100483.04
2023-05-01T12:24:36.260Z,100483.84
2023-05-01T12:27:03.995Z,100477.29
2023-05-01T12:29:49.149Z,100474.15
2023-05-01T12:32:17.043Z,100470.18
2023-05-01T12:34:45.172Z,100466.02
2023-05-01T12:37:12.917Z,100465.33
2023-05-01T12:39:50.171Z,100463.96
2023-05-01T12:42:18.584Z,100460.57
2023-05-01T12:44:46.232Z,100459.03
2023-05-01T12:47:14.371Z,100455.32
2023-05-01T12:49:42.044Z,100456.20
2023-05-01T12:52:09.732Z,100450.13
2023-05-01T12:54:39.485Z,100450.43
2023-05-01T12:57:11.675Z,100442.79
2023-05-01T12:59:40.956Z,100436.80
2023-05-01T13:02:17.537Z,100435.16
2023-05-01T13:04:49.492Z,100437.27
2023-05-01T13:07:19.133Z,100432.06
2023-05-01T13:09:59.318Z,100434.46
2023-05-01T13:12:28.435Z,100425.60
2023-05-01T13:14:56.817Z,100422.46
2023-05-01T13:17:28.605Z,100422.05
2023-05-01T13:20:01.084Z,100414.17
2023-05-01T13:22:37.200Z,100409.59
2023-05-01T13:25:15.909Z,100405.92
2023-05-01T13:27:51.171Z,100409.36
2023-05-01T13:30:23.939Z,100408.91
2023-05-01T13:32:51.456Z,100407.45
2023-05-01T13:35:26.729Z,100401.84
2023-05-01T13:37:55.170Z,100405.65
2023-05-01T13:40:25.955Z,100405.61
2023-05-01T13:42:56.666Z,100400.00
2023-05-01T13:45:25.746Z,100391.02
2023-05-01T13:47:55.330Z,100384.78
2023-05-01T13:50:23.050Z,100373.46
2023-05-01T13:52:50.602Z,100369.98
2023-05-01T13:55:18.793Z,100368.63
2023-05-01T13:57:46.521Z,100362.50
2023-05-01T14:00:18.614Z,100354.49
2023-05-01T14:02:50.026Z,100358.36
2023-05-01T14:05:25.589Z,100355.92
2023-05-01T14:07:58.392Z,100348.14
2023-05-01T14:10:28.895Z,100349.25
2023-05-01T14:12:58.639Z,100353.65
2023-05-01T14:15:26.821Z,100356.09
2023-05-01T14:17:54.445Z,100359.59
2023-05-01T14:20:25.356Z,100357.88
2023-05-01T14:22:53.613Z,100353.57
2023-05-01T14:25:29.643Z,100351.02
2023-05-01T14:28:08.149Z,100346.98
2023-05-01T14:30:38.384Z,100337.22
2023-05-01T14:33:13.606Z,100331.29
2023-05-01T14:35:49.676Z,100335.58
2023-05-01T14:38:19.212Z,100328.74
2023-05-01T14:40:47.972Z,100322.26
2023-05-01T14:43:21.863Z,100325.88
2023-05-01T14:45:50.253Z,100322.94
2023-05-01T14:48:26.915Z,100321.71
2023-05-01T14:50:59.279Z,100316.23
2023-05-01T14:53:32.605Z,100316.19
2023-05-01T14:56:00.361Z,100312.21
2023-05-01T14:58:27.937Z,100308.54
2023-05-01T15:00:55.553Z,100311.21
2023-05-01T15:03:23.125Z,100305.35
2023-05-01T15:05:50.915Z,100300.02
2023-05-01T15:08:18.714Z,100292.64
2023-05-01T15:10:46.282Z,100288.14
2023-05-01T15:13:13.932Z,100283.73
2023-05-01T15:15:41.505Z,100282.19
2023-05-01T15:18:09.189Z,100280.40
2023-05-01T15:20:37.510Z,100284.60
2023-05-01T15:23:05.009Z,100288.88
2023-05-01T15:25:32.616Z,100285.16
2023-05-01T15:28:00.157Z,100280.33
2023-05-01T15:30:27.693Z,100276.11
2023-05-01T15:32:56.008Z,100272.87
2023-05-01T15:35:24.106Z,100267.98
2023-05-01T15:37:51.710Z,100271.06
2023-05-01T15:40:19.553Z,100269.69
2023-05-01T15:42:48.104Z,100270.16
2023-05-01T15:45:15.787Z,100269.58
2023-05-01T15:47:43.278Z,100267.99
2023-05-01T15:50:14.008Z,100267.21
2023-05-01T15:52:41.894Z,100257.46
2023-05-01T15:55:09.680Z,100252.29
2023-05-01T15:57:37.246Z,100253.30
2023-05-01T16:00:06.042Z,100250.95
2023-05-01T16:02:33.723Z,100246.95
2023-05-01T16:05:01.315Z,100243.73
2023-05-01T16:07:29.678Z,100242.41
2023-05-01T16:09:58.211Z,100240.80
2023-05-01T16:12:29.697Z,100234.08
2023-05-01T16:14:57.426Z,100229.84
2023-05-01T16:17:24.981Z,100230.41
2023-05-01T16:19:55.407Z,100228.83
2023-05-01T16:22:23.022Z,100231.80
2023-05-01T16:24:51.701Z,100228.38
2023-05-01T16:27:19.205Z,100223.09
2023-05-01T16:29:47.143Z,100223.26
2023-05-01T16:32:17.084Z,100218.95
2023-05-01T16:34:45.969Z,100220.00
2023-05-01T16:37:15.130Z,100221.40
2023-05-01T16:39:43.817Z,100223.47
2023-05-01T16:42:14.544Z,100224.86
2023-05-01T16:44:42.155Z,100221.48
2023-05-01T16:47:12.596Z,100221.45
2023-05-01T16:49:44.402Z,100220.45
2023-05-01T16:52:14.198Z,100214.39
2023-05-01T16:54:41.808Z,100215.38
2023-05-01T16:57:09.466Z,100219.01
2023-05-01T16:59:37.641Z,100215.95
2023-05-01T17:02:06.363Z,100216.09
2023-05-01T17:04:34.071Z,100221.80
2023-05-01T17:07:01.574Z,100218.28
2023-05-01T17:09:29.106Z,100211.39
2023-05-01T17:11:57.470Z,100217.22
2023-05-01T17:14:27.714Z,100215.03
2023-05-01T17:16:55.511Z,100216.21
2023-05-01T17:19:23.277Z,100213.38
2023-05-01T17:21:50.804Z,100216.42
2023-05-01T17:24:18.313Z,100208.80
2023-05-01T17:26:49.487Z,100208.77
2023-05-01T17:29:17.026Z,100204.20
2023-05-01T17:31:44.646Z,100202.39
2023-05-01T17:34:13.184Z,100202.14
2023-05-01T17:36:40.978Z,100204.42
2023-05-01T17:39:09.653Z,100200.56
2023-05-01T17:41:37.536Z,100200.95
2023-05-01T17:44:05.427Z,100202.12
2023-05-01T17:46:33.413Z,100203.06
2023-05-01T17:49:01.015Z,100199.30
2023-05-01T17:51:28.529Z,100192.77
2023-05-01T17:53:55.978Z,100190.41
2023-05-01T17:56:24.529Z,100191.40
2023-05-01T17:58:52.034Z,100189.30
2023-05-01T18:01:19.634Z,100191.80
2023-05-01T18:03:49.199Z,100192.52
2023-05-01T18:06:17.474Z,100191.41
2023-05-01T18:08:44.953Z,100189.27
2023-05-01T18:11:12.472Z,100182.76
2023-05-01T18:13:42.403Z,100181.13
2023-05-01T18:16:11.128Z,100175.20
2023-05-01T18:18:38.837Z,100178.11
2023-05-01T18:21:06.388Z,100178.61
2023-05-01T18:23:35.682Z,100183.84
2023-05-01T18:26:03.765Z,100192.45
2023-05-01T18:28:33.494Z,100198.70
2023-05-01T18:31:01.423Z,100196.58
2023-05-01T18:33:29.034Z,100196.38
2023-05-01T18:35:56.839Z,100195.41
2023-05-01T18:38:25.908Z,100196.55
2023-05-01T18:40:54.805Z,100191.72
2023-05-01T18:43:22.398Z,100188.95
2023-05-01T18:45:49.917Z,100186.54
2023-05-01T18:48:17.506Z,100186.84
2023-05-01T18:50:54.108Z,100185.40
2023-05-01T18:53:25.406Z,100185.55
2023-05-01T18:55:53.174Z,100180.73
2023-05-01T18:58:21.140Z,100183.06
2023-05-01T19:00:48.939Z,100183.84
2023-05-01T19:03:16.418Z,100187.55
2023-05-01T19:05:44.007Z,100188.26
2023-05-01T19:08:11.635Z,100186.94
2023-05-01T19:10:39.301Z,100181.08
2023-05-01T19:13:07.345Z,100176.46
2023-05-01T19:15:35.068Z,100180.10
2023-05-01T19:18:02.636Z,100182.88
2023-05-01T19:20:31.041Z,100184.81
2023-05-01T19:22:58.534Z,100185.63
2023-05-01T19:25:26.450Z,100185.90
2023-05-01T19:27:53.888Z,100184.20
2023-05-01T19:30:21.878Z,100189.84
2023-05-01T19:32:50.333Z,100191.63
2023-05-01T19:35:17.818Z,100188.02
2023-05-01T19:37:45.668Z,100188.94
2023-05-01T19:40:13.227Z,100179.55
2023-05-01T19:42:40.714Z,100181.16
2023-05-01T19:45:08.932Z,100179.99
2023-05-01T19:47:36.488Z,100177.42
2023-05-01T19:50:05.674Z,100174.46
2023-05-01T19:52:33.215Z,100174.02
2023-05-01T19:55:05.197Z,100176.93
2023-05-01T19:57:33.786Z,100176.14
2023-05-01T20:00:01.682Z,100175.04
2023-05-01T20:02:29.634Z,100174.98
2023-05-01T20:04:57.506Z,100174.06
2023-05-01T20:07:25.824Z,100168.39
2023-05-01T20:09:53.326Z,100167.44
2023-05-01T20:12:22.462Z,100164.73
2023-05-01T20:14:49.986Z,100161.65
2023-05-01T20:17:17.810Z,100154.04
2023-05-01T20:19:45.531Z,100151.81
2023-05-01T20:22:12.969Z,100151.05
2023-05-01T20:24:41.425Z,100148.00
2023-05-01T20:27:08.876Z,100147.30
2023-05-01T20:29:36.386Z,100142.77
2023-05-01T20:32:04.425Z,100144.98
2023-05-01T20:34:31.958Z,100142.35
2023-05-01T20:36:59.446Z,100142.17
2023-05-01T20:39:26.950Z,100141.49
2023-05-01T20:41:54.453Z,100132.63
2023-05-01T20:44:21.888Z,100125.46
2023-05-01T20:46:49.334Z,100124.92
2023-05-01T20:49:16.961Z,100124.88
2023-05-01T20:51:44.379Z,100123.66
2023-05-01T20:54:11.948Z,100125.40
2023-05-01T20:56:39.525Z,100120.69
2023-05-01T20:59:07.303Z,100120.27
2023-05-01T21:01:36.181Z,100122.18
2023-05-01T21:04:03.870Z,100125.48
2023-05-01T21:06:32.847Z,100124.41
2023-05-01T21:09:01.131Z,100122.84
2023-05-01T21:11:28.781Z,100122.35
2023-05-01T21:13:58.618Z,100117.83
2023-05-01T21:16:28.732Z,100121.00
2023-05-01T21:18:56.369Z,100118.26
2023-05-01T21:21:26.249Z,100118.63
2023-05-01T21:23:53.812Z,100119.41
2023-05-01T21:26:21.391Z,100118.64
2023-05-01T21:28:49.003Z,100123.29
2023-05-01T21:31:16.927Z,100124.77
2023-05-01T21:33:47.641Z,100120.54
2023-05-01T21:36:18.080Z,100121.50
2023-05-01T21:38:45.963Z,100121.84
2023-05-01T21:41:15.563Z,100120.38
2023-05-01T21:43:43.751Z,100116.20
2023-05-01T21:46:16.508Z,100120.16
2023-05-01T21:48:49.337Z,100120.33
2023-05-01T21:51:17.829Z,100123.40
2023-05-01T21:53:45.398Z,100119.19
2023-05-01T21:56:14.334Z,100121.17
2023-05-01T21:58:41.931Z,100125.46
2023-05-01T22:01:13.261Z,100126.45
2023-05-01T22:03:41.776Z,100127.26
2023-05-01T22:06:09.658Z,100124.41
2023-05-01T22:08:37.359Z,100123.85
2023-05-01T22:11:06.497Z,100126.09
2023-05-01T22:13:35.441Z,100118.05
2023-05-01T22:16:03.744Z,100121.98
2023-05-01T22:18:31.422Z,100118.94
2023-05-01T22:21:02.760Z,100117.77
2023-05-01T22:23:30.204Z,100117.49
2023-05-01T22:25:59.859Z,100120.34
2023-05-01T22:28:27.691Z,100118.15
2023-05-01T22:30:55.184Z,100112.16
2023-05-01T22:33:22.757Z,100113.82
2023-05-01T22:35:50.694Z,100109.89
2023-05-01T22:38:18.234Z,100108.08
2023-05-01T22:40:45.715Z,100107.27
2023-05-01T22:43:13.287Z,100105.78
2023-05-01T22:45:40.726Z,100106.91
2023-05-01T22:48:08.325Z,100103.70
2023-05-01T22:50:35.845Z,100102.52
2023-05-01T22:53:03.751Z,100098.77
2023-05-01T22:55:34.494Z,100099.13
2023-05-01T22:58:02.308Z,100098.09
2023-05-01T23:00:29.992Z,100094.32
2023-05-01T23:03:00.350Z,100092.50
2023-05-01T23:05:28.452Z,100091.36
2023-05-01T23:07:55.965Z,100089.54
2023-05-01T23:10:27.341Z,100085.45
2023-05-01T23:12:54.850Z,100084.67
2023-05-01T23:15:25.840Z,100081.12
2023-05-01T23:17:53.541Z,100076.52
2023-05-01T23:20:25.020Z,100076.75
2023-05-01T23:22:53.254Z,100071.41
2023-05-01T23:25:25.701Z,100071.77
2023-05-01T23:27:56.146Z,100068.16
2023-05-01T23:30:23.796Z,100064.18
2023-05-01T23:32:51.418Z,100063.49
2023-05-01T23:35:23.879Z,100056.91
2023-05-01T23:37:52.865Z,100053.67
2023-05-01T23:40:20.537Z,100052.34
2023-05-01T23:42:49.181Z,100050.12
2023-05-01T23:45:16.928Z,100048.06
2023-05-01T23:47:44.894Z,100044.98
2023-05-01T23:50:12.533Z,100042.41
2023-05-01T23:52:40.267Z,100038.46
2023-05-01T23:55:07.959Z,100035.55
2023-05-01T23:57:35.563Z,100033.65
